Stige, Denmark
Current Conditions -  °F | °C
As of 9:50 PM on Tuesday 25 Nov 2014 (Local Time) from EKSB Reporting Station
Haze Haze  
Wind Chill: 41°   Ceiling: Unl
Heat Index: 41°   Visibility: 3mi
Dew Point: 39°   Wind: 0mph
Humidity: 93%   Direction: NA
Pressure: 30.3"   Gusts: NA
Location:  55.44°N, 10.41°E
Report Text: EKSB 252050Z 00000KT 5000 BR SCT025 05/04 Q1026
Loading
Personal Weather Stations






























Interactive Weather Map New forecast layout! Learn more

10-Day Weather Forecast

Advertisements
Track Severe Weather on mobile